Time;durP1;ratioP1;P1;durP2;ratioP2;P2;SDS_P1;SDS_P2;PMS_P1;PMS_P2;Temp;Humidity;BMP_temperature;BMP_pressure;BME280_temperature;BME280_humidity;BME280_pressure;Samples;Min_cycle;Max_cycle;Signal;HPM_P1;HPM_P2
2024/02/18 01:27:21;;;;;;;13.13;8.50;;;12.20;99.90;;;;;;4980315;28;20893;-26
2024/02/18 01:29:47;;;;;;;8.10;7.20;;;12.20;99.90;;;;;;5007221;28;20429;-25
2024/02/18 01:32:14;;;;;;;9.00;6.80;;;12.20;99.90;;;;;;4990173;28;20447;-25
2024/02/18 01:34:40;;;;;;;8.83;7.60;;;12.20;99.90;;;;;;4997432;28;20439;-26
2024/02/18 01:37:06;;;;;;;8.90;7.30;;;12.30;99.90;;;;;;4990540;28;20536;-26
2024/02/18 01:39:32;;;;;;;10.83;8.10;;;12.30;99.90;;;;;;5007112;28;20417;-26
2024/02/18 01:41:58;;;;;;;10.47;7.70;;;12.30;99.90;;;;;;5000654;28;20432;-26
2024/02/18 01:44:25;;;;;;;9.90;7.33;;;12.30;99.90;;;;;;4979962;28;20448;-27
2024/02/18 01:46:52;;;;;;;12.40;8.60;;;12.30;99.90;;;;;;4996709;28;20923;-26
2024/02/18 01:49:19;;;;;;;12.17;7.77;;;12.30;99.90;;;;;;4977374;28;20428;-26
2024/02/18 01:51:45;;;;;;;8.40;7.30;;;12.30;99.90;;;;;;4998228;28;20463;-26
2024/02/18 01:54:11;;;;;;;11.00;8.50;;;12.30;99.90;;;;;;4996533;28;20448;-26
2024/02/18 01:56:41;;;;;;;12.03;8.77;;;12.30;99.90;;;;;;5000954;28;20549;-26
2024/02/18 01:59:08;;;;;;;9.40;7.80;;;12.30;99.90;;;;;;4999563;28;20444;-26
2024/02/18 02:01:34;;;;;;;11.80;8.27;;;12.30;99.90;;;;;;4997959;28;21262;-26
2024/02/18 02:04:02;;;;;;;8.97;7.90;;;12.30;99.90;;;;;;4995899;28;20486;-26
2024/02/18 02:06:33;;;;;;;9.57;8.13;;;12.30;99.90;;;;;;4997601;28;20491;-26
2024/02/18 02:09:00;;;;;;;11.33;8.30;;;12.30;99.90;;;;;;4996831;28;20464;-26
2024/02/18 02:11:26;;;;;;;8.70;7.53;;;12.30;99.90;;;;;;4982981;28;20448;-26
2024/02/18 02:13:54;;;;;;;12.10;8.77;;;12.30;99.90;;;;;;4997036;28;20441;-26
2024/02/18 02:16:20;;;;;;;10.40;8.50;;;12.30;99.90;;;;;;4996191;28;20566;-26
2024/02/18 02:18:46;;;;;;;9.20;7.90;;;12.30;99.90;;;;;;4979349;28;20437;-26
2024/02/18 02:21:12;;;;;;;10.10;8.70;;;12.30;99.90;;;;;;4997514;28;20443;-27
2024/02/18 02:23:42;;;;;;;9.47;8.10;;;12.30;99.90;;;;;;4998478;28;20498;-26
2024/02/18 02:26:12;;;;;;;14.23;7.63;;;12.30;99.90;;;;;;4979164;28;20779;-26
2024/02/18 02:29:08;;;;;;;11.33;8.03;;;12.30;99.90;;;;;;4998071;28;20436;-26
2024/02/18 02:31:34;;;;;;;11.50;8.07;;;12.30;99.90;;;;;;4991697;28;20452;-26
2024/02/18 02:34:00;;;;;;;11.80;8.63;;;12.30;99.90;;;;;;4984395;28;20975;-27
2024/02/18 02:36:29;;;;;;;9.30;8.33;;;12.30;99.90;;;;;;4983038;28;21296;-26
2024/02/18 02:38:58;;;;;;;9.30;7.97;;;12.30;99.90;;;;;;5000582;28;20432;-27
2024/02/18 02:41:24;;;;;;;11.50;8.20;;;12.30;99.90;;;;;;5000741;28;20416;-27
2024/02/18 02:43:51;;;;;;;11.13;8.47;;;12.30;99.90;;;;;;4982933;28;20528;-27
2024/02/18 02:46:17;;;;;;;10.20;8.00;;;12.30;99.90;;;;;;4984505;28;20539;-27
2024/02/18 02:48:43;;;;;;;15.60;9.50;;;12.30;99.90;;;;;;5000036;28;20523;-26
2024/02/18 02:51:11;;;;;;;13.00;7.90;;;12.30;99.90;;;;;;4995709;28;20422;-26
2024/02/18 02:53:37;;;;;;;11.93;8.80;;;12.30;99.90;;;;;;4990421;28;20449;-24
2024/02/18 02:56:05;;;;;;;10.57;8.17;;;12.30;99.90;;;;;;5004800;28;20569;-27
2024/02/18 02:58:31;;;;;;;12.10;7.67;;;12.30;99.90;;;;;;4991859;28;20426;-26
2024/02/18 03:01:00;;;;;;;9.97;7.50;;;12.20;99.90;;;;;;4973113;28;20475;-25
2024/02/18 03:03:28;;;;;;;9.80;8.60;;;12.20;99.90;;;;;;4966093;28;20451;-24
2024/02/18 03:05:54;;;;;;;12.33;8.60;;;12.20;99.90;;;;;;5001118;28;20439;-24
2024/02/18 03:08:21;;;;;;;9.60;8.00;;;12.20;99.90;;;;;;5001062;28;20459;-27
2024/02/18 03:10:47;;;;;;;13.40;9.70;;;12.30;99.90;;;;;;5000118;28;20432;-24
2024/02/18 03:13:13;;;;;;;10.60;8.87;;;12.30;99.90;;;;;;4982651;28;20518;-27
2024/02/18 03:15:39;;;;;;;12.93;8.73;;;12.20;99.90;;;;;;4981958;28;21332;-27
2024/02/18 03:18:05;;;;;;;13.83;8.40;;;12.20;99.90;;;;;;4996154;28;20432;-27
2024/02/18 03:20:32;;;;;;;14.70;9.07;;;12.20;99.90;;;;;;5000370;28;20423;-26
2024/02/18 03:23:00;;;;;;;16.47;9.13;;;12.20;99.90;;;;;;4982302;28;20436;-26
2024/02/18 03:25:29;;;;;;;13.00;8.10;;;12.20;99.90;;;;;;5003833;28;20525;-26
2024/02/18 03:27:57;;;;;;;9.10;7.50;;;12.20;99.90;;;;;;5003461;28;20435;-24
2024/02/18 03:30:23;;;;;;;15.00;8.70;;;12.20;99.90;;;;;;4985379;28;20433;-26
2024/02/18 03:32:52;;;;;;;14.00;8.90;;;12.20;99.90;;;;;;4985218;28;20946;-26
2024/02/18 03:35:19;;;;;;;10.47;8.33;;;12.20;99.90;;;;;;4986450;28;20472;-26
2024/02/18 03:37:45;;;;;;;12.90;8.90;;;12.20;99.90;;;;;;4987567;28;20927;-26
2024/02/18 03:40:12;;;;;;;10.03;8.13;;;12.20;99.90;;;;;;5004783;28;21470;-26
2024/02/18 03:42:40;;;;;;;10.10;7.80;;;12.20;99.90;;;;;;5013234;28;20447;-26
2024/02/18 03:45:06;;;;;;;11.67;8.13;;;12.20;99.90;;;;;;5005840;28;20474;-26
2024/02/18 03:47:35;;;;;;;12.53;8.67;;;12.20;99.90;;;;;;5003519;28;20431;-27
2024/02/18 03:50:01;;;;;;;13.53;8.30;;;12.20;99.90;;;;;;4983029;28;20436;-26
2024/02/18 03:52:27;;;;;;;11.80;8.63;;;12.20;99.90;;;;;;5005151;28;20493;-27
2024/02/18 03:54:53;;;;;;;17.00;8.97;;;12.20;99.90;;;;;;5003001;28;21287;-27
2024/02/18 03:57:19;;;;;;;12.37;8.87;;;12.20;99.90;;;;;;5020033;28;21389;-28
2024/02/18 03:59:47;;;;;;;13.03;9.53;;;12.20;99.90;;;;;;5020669;28;20515;-27
2024/02/18 04:02:13;;;;;;;11.37;9.20;;;12.20;99.90;;;;;;5002495;28;20424;-27
2024/02/18 04:04:39;;;;;;;14.17;8.83;;;12.20;99.90;;;;;;5020849;28;20485;-28
2024/02/18 04:07:08;;;;;;;11.70;8.07;;;12.20;99.90;;;;;;5002128;28;20181;-28
2024/02/18 04:09:40;;;;;;;11.53;8.50;;;12.20;99.90;;;;;;5018349;28;20934;-27
2024/02/18 04:12:07;;;;;;;12.90;8.50;;;12.20;99.90;;;;;;5002720;28;20511;-26
2024/02/18 04:14:38;;;;;;;11.00;8.87;;;12.20;99.90;;;;;;4986096;28;20460;-27
2024/02/18 04:17:04;;;;;;;9.80;7.70;;;12.20;99.90;;;;;;5019753;28;20471;-28
2024/02/18 04:19:30;;;;;;;10.53;7.93;;;12.20;99.90;;;;;;5020137;28;20431;-27
2024/02/18 04:21:56;;;;;;;13.00;9.27;;;12.20;99.90;;;;;;5002142;28;20455;-28
2024/02/18 04:24:23;;;;;;;11.33;7.83;;;12.20;99.90;;;;;;5020692;28;21092;-27
2024/02/18 04:26:51;;;;;;;11.10;9.27;;;12.20;99.90;;;;;;5020355;28;20444;-27
2024/02/18 04:29:17;;;;;;;10.70;8.00;;;12.10;99.90;;;;;;5019390;28;21201;-27
2024/02/18 04:31:46;;;;;;;12.27;8.33;;;12.20;99.90;;;;;;5020200;28;20484;-26
2024/02/18 04:34:14;;;;;;;9.77;8.30;;;12.10;99.90;;;;;;5020344;28;20854;-28
2024/02/18 04:36:40;;;;;;;10.20;8.93;;;12.10;99.90;;;;;;5021100;28;20893;-27
2024/02/18 04:39:06;;;;;;;10.77;8.10;;;12.10;99.90;;;;;;4987097;28;20486;-26
2024/02/18 04:41:35;;;;;;;9.73;7.77;;;12.20;99.90;;;;;;5021483;28;20451;-27
2024/02/18 04:44:03;;;;;;;13.63;8.13;;;12.10;99.90;;;;;;4987210;28;20827;-27
2024/02/18 04:46:29;;;;;;;11.67;8.33;;;12.10;99.90;;;;;;4989905;28;20482;-27
2024/02/18 04:48:58;;;;;;;11.73;7.87;;;12.10;99.90;;;;;;4980754;28;20460;-27
2024/02/18 04:51:24;;;;;;;11.30;7.70;;;12.10;99.90;;;;;;4990518;28;20436;-26
2024/02/18 04:53:53;;;;;;;9.23;7.73;;;12.10;99.90;;;;;;5000731;28;20537;-26
2024/02/18 04:56:20;;;;;;;8.17;7.37;;;12.10;99.90;;;;;;4992409;28;20532;-26
2024/02/18 04:58:46;;;;;;;10.20;7.23;;;12.10;99.90;;;;;;4990541;28;20436;-26
2024/02/18 05:01:12;;;;;;;8.80;7.90;;;12.10;99.90;;;;;;4999691;28;20413;-26
2024/02/18 05:03:41;;;;;;;12.63;8.97;;;12.10;99.90;;;;;;4998690;28;20475;-26
2024/02/18 05:06:13;;;;;;;9.53;7.67;;;12.10;99.90;;;;;;4999818;28;21009;-26
2024/02/18 05:08:39;;;;;;;8.20;7.07;;;12.10;99.90;;;;;;4989388;28;20437;-26
2024/02/18 05:11:05;;;;;;;11.07;8.00;;;12.10;99.90;;;;;;4999231;28;21060;-26
2024/02/18 05:13:33;;;;;;;10.47;7.57;;;12.10;99.90;;;;;;5003784;28;20459;-26
2024/02/18 05:16:00;;;;;;;12.90;7.60;;;12.10;99.90;;;;;;4999212;28;20484;-26
2024/02/18 05:18:25;;;;;;;9.50;7.70;;;12.10;99.90;;;;;;4999319;28;20544;-26
2024/02/18 05:20:52;;;;;;;9.93;7.30;;;12.10;99.90;;;;;;4998340;28;20528;-26
2024/02/18 05:23:18;;;;;;;10.53;7.40;;;12.10;99.90;;;;;;5003596;28;20433;-26
2024/02/18 05:25:46;;;;;;;9.77;7.37;;;12.10;99.90;;;;;;4990002;28;20459;-27
2024/02/18 05:28:12;;;;;;;11.40;7.40;;;12.10;99.90;;;;;;4999127;28;21095;-27
2024/02/18 05:30:41;;;;;;;10.50;6.20;;;12.10;99.90;;;;;;5000074;28;20548;-27
2024/02/18 05:33:07;;;;;;;7.60;6.80;;;12.10;99.90;;;;;;5004138;28;20467;-26
2024/02/18 05:35:35;;;;;;;10.57;7.20;;;12.10;99.90;;;;;;4999383;28;20606;-26
2024/02/18 05:38:01;;;;;;;7.83;6.20;;;12.10;99.90;;;;;;4981326;28;20464;-26
2024/02/18 05:40:29;;;;;;;6.67;5.97;;;12.10;99.90;;;;;;4964853;28;20451;-26
2024/02/18 05:42:57;;;;;;;8.30;6.47;;;12.10;99.90;;;;;;4981731;28;20468;-26
2024/02/18 05:45:31;;;;;;;9.90;7.70;;;12.10;99.90;;;;;;4972026;28;20440;-26
2024/02/18 05:47:58;;;;;;;9.23;6.70;;;12.10;99.90;;;;;;4983279;28;20519;-26
2024/02/18 05:50:24;;;;;;;11.83;7.57;;;12.10;99.90;;;;;;4985526;28;20482;-26
2024/02/18 05:52:49;;;;;;;6.77;5.90;;;12.10;99.90;;;;;;5004169;28;20440;-26
2024/02/18 05:55:16;;;;;;;8.60;6.80;;;12.10;99.90;;;;;;4997425;28;20897;-27
2024/02/18 05:57:42;;;;;;;6.40;5.80;;;12.10;99.90;;;;;;4993251;28;20971;-26
2024/02/18 06:00:08;;;;;;;7.57;6.33;;;12.10;99.90;;;;;;4999116;28;20421;-25
2024/02/18 06:02:36;;;;;;;8.23;7.03;;;12.10;99.90;;;;;;5000706;28;20424;-26
2024/02/18 06:05:02;;;;;;;7.93;6.20;;;12.10;99.90;;;;;;4999615;28;21214;-25
2024/02/18 06:07:28;;;;;;;5.77;5.23;;;12.10;99.90;;;;;;4981193;28;20906;-26
2024/02/18 06:09:54;;;;;;;6.47;5.80;;;12.10;99.90;;;;;;4999194;28;21041;-26
2024/02/18 06:12:22;;;;;;;8.23;5.83;;;12.10;99.90;;;;;;4995054;28;20463;-26
2024/02/18 06:14:51;;;;;;;7.23;6.00;;;12.10;99.90;;;;;;5001255;28;20460;-26
2024/02/18 06:17:18;;;;;;;9.93;6.50;;;12.00;99.90;;;;;;4970884;28;20491;-26
2024/02/18 06:19:44;;;;;;;7.10;6.40;;;12.10;99.90;;;;;;4998427;28;21029;-26
2024/02/18 06:22:10;;;;;;;8.87;6.40;;;12.00;99.90;;;;;;5003630;28;20435;-26
2024/02/18 06:24:37;;;;;;;8.30;6.67;;;12.00;99.90;;;;;;4994683;28;20448;-26
2024/02/18 06:27:06;;;;;;;5.77;5.23;;;12.00;99.90;;;;;;5000725;28;20463;-27
2024/02/18 06:29:31;;;;;;;8.50;6.57;;;12.00;99.90;;;;;;5008617;28;21009;-26
2024/02/18 06:32:00;;;;;;;7.23;6.20;;;12.00;99.90;;;;;;4986449;28;20428;-25
2024/02/18 06:34:28;;;;;;;7.13;6.10;;;12.00;99.90;;;;;;5009017;28;21038;-25
2024/02/18 06:36:56;;;;;;;6.73;5.47;;;12.00;99.90;;;;;;5002926;28;21414;-26
2024/02/18 06:39:22;;;;;;;7.97;5.70;;;12.00;99.90;;;;;;4985318;28;20436;-25
2024/02/18 06:41:50;;;;;;;9.20;6.33;;;12.00;99.90;;;;;;4997621;28;20460;-26
2024/02/18 06:44:16;;;;;;;7.33;5.70;;;12.00;99.90;;;;;;5002161;28;20460;-26
2024/02/18 06:46:42;;;;;;;9.80;6.57;;;12.00;99.90;;;;;;4997524;28;20822;-26
2024/02/18 06:49:08;;;;;;;8.77;6.00;;;12.00;99.90;;;;;;4999829;28;20424;-25
2024/02/18 06:51:34;;;;;;;7.30;6.20;;;12.00;99.90;;;;;;5000804;28;20424;-25
2024/02/18 06:54:01;;;;;;;8.10;6.43;;;12.00;99.90;;;;;;4998638;28;20764;-27
2024/02/18 06:56:30;;;;;;;6.60;5.50;;;12.00;99.90;;;;;;5002507;28;21320;-27
2024/02/18 06:58:56;;;;;;;8.63;6.30;;;12.00;99.90;;;;;;4991490;28;20681;-26
2024/02/18 07:01:24;;;;;;;7.37;5.50;;;12.00;99.90;;;;;;4997713;28;20499;-26
2024/02/18 07:03:50;;;;;;;6.47;5.43;;;12.00;99.90;;;;;;5007826;28;20909;-25
2024/02/18 07:06:21;;;;;;;6.10;5.27;;;12.00;99.90;;;;;;4978064;28;20468;-26
2024/02/18 07:08:47;;;;;;;7.23;5.40;;;12.00;99.90;;;;;;4978825;28;20447;-26
2024/02/18 07:11:14;;;;;;;9.80;5.53;;;12.00;99.90;;;;;;4996103;28;20604;-26
2024/02/18 07:13:43;;;;;;;8.27;5.50;;;12.00;99.90;;;;;;4990860;28;20455;-27
2024/02/18 07:16:12;;;;;;;6.50;5.07;;;12.00;99.90;;;;;;4974716;28;20970;-26
2024/02/18 07:18:40;;;;;;;6.70;5.30;;;12.00;99.90;;;;;;4981913;28;20436;-26
2024/02/18 07:21:06;;;;;;;7.07;5.40;;;12.00;99.90;;;;;;4989443;28;20435;-26
2024/02/18 07:23:32;;;;;;;7.30;5.67;;;12.00;99.90;;;;;;5005681;28;20569;-27
2024/02/18 07:26:00;;;;;;;6.93;5.23;;;12.00;99.90;;;;;;5008942;28;20541;-29
2024/02/18 07:28:28;;;;;;;6.53;5.27;;;12.00;99.90;;;;;;4987467;28;20446;-26
2024/02/18 07:30:55;;;;;;;7.20;5.47;;;12.00;99.90;;;;;;4992651;28;20428;-27
2024/02/18 07:33:20;;;;;;;6.97;4.87;;;12.00;99.90;;;;;;5002640;28;20232;-23
2024/02/18 07:35:48;;;;;;;6.83;4.97;;;12.00;99.90;;;;;;4999749;28;20467;-26
2024/02/18 07:38:14;;;;;;;6.80;4.90;;;11.90;99.90;;;;;;5002385;28;20482;-27
2024/02/18 07:40:46;;;;;;;7.30;4.80;;;11.90;99.90;;;;;;5010878;28;20424;-25
2024/02/18 07:43:12;;;;;;;5.13;4.57;;;11.90;99.90;;;;;;5003865;28;20536;-26
2024/02/18 07:45:39;;;;;;;7.33;5.30;;;11.90;99.90;;;;;;5001586;28;20439;-25
2024/02/18 07:48:06;;;;;;;6.37;4.63;;;11.90;99.90;;;;;;4994271;28;20499;-27
2024/02/18 07:50:31;;;;;;;5.67;4.53;;;11.90;99.90;;;;;;4976433;28;20451;-27
2024/02/18 07:52:58;;;;;;;6.83;5.13;;;11.90;99.90;;;;;;5004479;28;20464;-25
2024/02/18 07:55:28;;;;;;;6.80;5.17;;;11.90;99.90;;;;;;5001382;28;20523;-25
2024/02/18 07:57:54;;;;;;;6.67;4.70;;;11.90;99.90;;;;;;4996755;28;20443;-26
2024/02/18 08:00:26;;;;;;;7.30;5.20;;;11.90;99.90;;;;;;4976784;28;20664;-24
2024/02/18 08:02:53;;;;;;;5.33;4.83;;;11.90;99.90;;;;;;4998236;28;20996;-24
2024/02/18 08:05:19;;;;;;;6.10;5.47;;;11.90;99.90;;;;;;5002029;28;20926;-26
2024/02/18 08:07:47;;;;;;;6.50;5.20;;;11.90;99.90;;;;;;4985613;28;20519;-27
2024/02/18 08:10:19;;;;;;;7.10;5.20;;;11.90;99.90;;;;;;4993305;28;20475;-28
2024/02/18 08:12:45;;;;;;;6.33;5.00;;;11.90;99.90;;;;;;5001726;28;20448;-27
2024/02/18 08:15:14;;;;;;;8.87;5.43;;;11.90;99.90;;;;;;5004492;28;20417;-28
2024/02/18 08:17:41;;;;;;;6.63;5.20;;;11.90;99.90;;;;;;5004664;28;20506;-29
2024/02/18 08:20:07;;;;;;;6.90;4.70;;;11.90;99.90;;;;;;5009579;28;20447;-26
2024/02/18 08:22:33;;;;;;;7.53;5.40;;;11.90;99.90;;;;;;4996645;28;20438;-26
2024/02/18 08:25:02;;;;;;;7.63;5.03;;;11.90;99.90;;;;;;4991900;28;21268;-29
2024/02/18 08:27:28;;;;;;;7.03;4.93;;;11.90;99.90;;;;;;5007631;28;20508;-26
2024/02/18 08:29:57;;;;;;;5.90;5.20;;;11.90;99.90;;;;;;5001646;28;20439;-28
2024/02/18 08:32:23;;;;;;;6.73;4.70;;;11.90;99.90;;;;;;4998502;28;20471;-29
2024/02/18 08:34:49;;;;;;;5.30;4.67;;;11.90;99.90;;;;;;5005519;28;20532;-28
2024/02/18 08:37:15;;;;;;;6.67;5.40;;;11.90;99.90;;;;;;4998592;28;20571;-28
2024/02/18 08:39:41;;;;;;;7.53;5.20;;;11.90;99.90;;;;;;5005738;28;21136;-27
2024/02/18 08:42:07;;;;;;;6.37;4.83;;;11.90;99.90;;;;;;4997132;28;21007;-27
2024/02/18 08:44:36;;;;;;;6.60;5.50;;;11.90;99.90;;;;;;5006292;28;20464;-26
2024/02/18 08:47:04;;;;;;;4.90;4.40;;;11.90;99.90;;;;;;5014482;28;21149;-29
2024/02/18 08:49:30;;;;;;;8.63;5.30;;;11.80;99.90;;;;;;4994198;28;20464;-28
2024/02/18 08:52:04;;;;;;;5.27;4.77;;;11.80;99.90;;;;;;4985693;28;20448;-26
2024/02/18 08:54:30;;;;;;;5.50;5.00;;;11.80;99.90;;;;;;5015278;28;20447;-27
2024/02/18 08:56:56;;;;;;;5.30;4.80;;;11.80;99.90;;;;;;5007311;28;20533;-28
2024/02/18 08:59:24;;;;;;;7.50;4.93;;;11.80;99.90;;;;;;5007795;28;20957;-27
2024/02/18 09:01:55;;;;;;;8.43;4.73;;;11.80;99.90;;;;;;4991240;28;20519;-27
2024/02/18 09:04:22;;;;;;;6.40;4.87;;;11.80;99.90;;;;;;5015410;28;20452;-26
2024/02/18 09:06:48;;;;;;;7.50;4.50;;;11.80;99.90;;;;;;4993660;28;20468;-27
2024/02/18 09:09:15;;;;;;;11.73;5.20;;;11.80;99.90;;;;;;4999591;28;20531;-30
2024/02/18 09:11:44;;;;;;;5.73;4.50;;;11.80;99.90;;;;;;4998642;28;21199;-26
2024/02/18 09:14:11;;;;;;;7.10;4.53;;;11.80;99.90;;;;;;4979224;28;20928;-26
2024/02/18 09:16:37;;;;;;;8.73;5.33;;;11.80;99.90;;;;;;5011193;28;21432;-26
2024/02/18 09:19:03;;;;;;;7.10;4.80;;;11.80;99.90;;;;;;4997718;28;20447;-26
2024/02/18 09:21:34;;;;;;;8.37;5.00;;;11.80;99.90;;;;;;4993084;28;20432;-26
2024/02/18 09:24:00;;;;;;;6.50;4.60;;;11.80;99.90;;;;;;5002573;28;20435;-25
2024/02/18 09:26:26;;;;;;;7.13;4.90;;;11.80;99.90;;;;;;5012847;28;20526;-26
2024/02/18 09:28:55;;;;;;;4.90;4.13;;;11.80;99.90;;;;;;4996247;28;20427;-25
2024/02/18 09:31:23;;;;;;;7.10;4.50;;;11.80;99.90;;;;;;4997582;28;20451;-25
2024/02/18 09:33:50;;;;;;;9.07;5.27;;;11.80;99.90;;;;;;4992411;28;20863;-26
2024/02/18 09:36:15;;;;;;;6.67;5.03;;;11.80;99.90;;;;;;4996922;28;20984;-26
2024/02/18 09:38:41;;;;;;;6.40;4.90;;;11.80;99.90;;;;;;4997228;28;20428;-25
2024/02/18 09:41:17;;;;;;;6.87;4.30;;;11.80;99.90;;;;;;4998523;28;20205;-26
2024/02/18 09:43:45;;;;;;;10.70;4.37;;;11.80;99.90;;;;;;5001458;28;20518;-27
2024/02/18 09:46:14;;;;;;;8.60;4.50;;;11.80;99.90;;;;;;5015906;28;20418;-25
2024/02/18 09:48:41;;;;;;;5.30;4.80;;;11.80;99.90;;;;;;5018574;28;20430;-27
2024/02/18 09:51:24;;;;;;;4.67;4.20;;;11.80;99.90;;;;;;5016976;28;20543;-26
2024/02/18 09:53:54;;;;;;;5.40;4.50;;;11.80;99.90;;;;;;5019589;28;20487;-25
2024/02/18 09:56:22;;;;;;;7.63;4.53;;;11.80;99.90;;;;;;5022209;28;20475;-27
2024/02/18 09:58:49;;;;;;;4.50;3.87;;;11.80;99.90;;;;;;5002370;28;20448;-26
2024/02/18 10:01:25;;;;;;;8.60;4.10;;;11.80;99.90;;;;;;5002205;28;20457;-27
2024/02/18 10:03:52;;;;;;;5.63;3.93;;;11.80;99.90;;;;;;5005831;28;20451;-26
2024/02/18 10:06:18;;;;;;;8.70;4.33;;;11.80;99.90;;;;;;5003478;28;20428;-28
2024/02/18 10:08:55;;;;;;;7.03;4.73;;;11.80;99.90;;;;;;5018541;28;21048;-25
2024/02/18 10:11:22;;;;;;;11.67;4.43;;;11.80;99.90;;;;;;4979398;28;20440;-27
2024/02/18 10:13:48;;;;;;;5.63;4.43;;;11.80;99.90;;;;;;4979514;28;20449;-25
2024/02/18 10:16:15;;;;;;;8.20;4.50;;;11.80;99.90;;;;;;4980386;28;20510;-27
2024/02/18 10:18:45;;;;;;;6.00;3.80;;;11.80;99.90;;;;;;4965445;28;20424;-26
2024/02/18 10:21:14;;;;;;;5.20;3.73;;;11.80;99.90;;;;;;4997195;28;20428;-25
2024/02/18 10:23:44;;;;;;;7.77;3.67;;;11.80;99.90;;;;;;4980852;28;21000;-27
2024/02/18 10:26:11;;;;;;;6.60;4.00;;;11.80;99.90;;;;;;4956563;28;1178890;-27
2024/02/18 10:28:38;;;;;;;4.20;3.70;;;11.80;99.90;;;;;;5000183;28;21285;-26
2024/02/18 10:31:07;;;;;;;7.30;3.63;;;11.80;99.90;;;;;;4984749;28;20518;-25
2024/02/18 10:33:38;;;;;;;5.07;3.63;;;11.80;99.90;;;;;;4985029;28;20531;-26
2024/02/18 10:36:08;;;;;;;6.53;4.30;;;11.80;99.90;;;;;;5003782;28;20496;-25
2024/02/18 10:38:37;;;;;;;5.73;3.97;;;11.80;99.90;;;;;;5004098;28;20445;-27
2024/02/18 10:41:09;;;;;;;5.23;3.60;;;11.80;99.90;;;;;;5005541;28;20421;-28
2024/02/18 10:43:45;;;;;;;8.77;4.20;;;11.80;99.90;;;;;;5004486;28;20437;-25
2024/02/18 10:46:14;;;;;;;6.47;3.87;;;11.80;99.90;;;;;;5001990;28;20429;-26
2024/02/18 10:48:54;;;;;;;8.73;4.67;;;11.80;99.90;;;;;;4981337;28;20470;-27
2024/02/18 10:51:34;;;;;;;5.60;4.03;;;11.80;99.90;;;;;;5001171;28;20432;-26
2024/02/18 10:54:27;;;;;;;4.33;3.90;;;11.80;99.90;;;;;;4973189;28;20463;-26
2024/02/18 10:57:11;;;;;;;6.33;4.13;;;11.80;99.90;;;;;;4988245;28;20472;-27
2024/02/18 10:59:45;;;;;;;7.17;3.93;;;11.80;99.90;;;;;;4952774;28;20433;-27
2024/02/18 11:02:19;;;;;;;10.37;4.63;;;11.80;99.90;;;;;;4972199;28;20516;-25
2024/02/18 11:04:47;;;;;;;6.97;4.70;;;11.80;99.90;;;;;;5006876;28;20433;-26
2024/02/18 11:07:16;;;;;;;5.53;4.10;;;11.80;99.90;;;;;;5004661;28;20424;-26
2024/02/18 11:09:45;;;;;;;4.50;3.63;;;11.80;99.90;;;;;;4985787;28;20563;-27
2024/02/18 11:12:16;;;;;;;7.93;4.13;;;11.80;99.90;;;;;;4985468;28;20463;-26
2024/02/18 11:14:43;;;;;;;4.77;4.27;;;11.80;99.90;;;;;;5006418;28;20462;-25
2024/02/18 11:17:14;;;;;;;4.40;3.53;;;11.80;99.90;;;;;;5004549;28;20500;-27
2024/02/18 11:19:41;;;;;;;5.70;4.33;;;11.80;99.90;;;;;;5004264;28;20481;-26
2024/02/18 11:22:07;;;;;;;6.37;3.63;;;11.80;99.90;;;;;;4999697;28;20446;-27
2024/02/18 11:24:33;;;;;;;5.10;3.87;;;11.80;99.90;;;;;;5001432;28;21079;-26
2024/02/18 11:27:02;;;;;;;6.87;4.00;;;11.80;99.90;;;;;;5000077;28;20435;-27
2024/02/18 11:29:28;;;;;;;5.60;3.97;;;11.80;99.90;;;;;;4983244;28;20444;-25
2024/02/18 11:31:54;;;;;;;5.50;4.10;;;11.80;99.90;;;;;;5002230;28;20454;-26
2024/02/18 11:34:20;;;;;;;4.70;4.03;;;11.80;99.90;;;;;;4994549;28;20530;-26
2024/02/18 11:36:46;;;;;;;5.50;4.60;;;11.70;99.90;;;;;;5000461;28;20912;-26
2024/02/18 11:39:13;;;;;;;4.93;4.43;;;11.80;99.90;;;;;;5000378;28;20938;-26
2024/02/18 11:41:39;;;;;;;6.70;4.40;;;11.70;99.90;;;;;;4975381;28;20463;-26
2024/02/18 11:44:17;;;;;;;5.10;3.90;;;11.80;99.90;;;;;;5000720;28;20452;-26
2024/02/18 11:46:45;;;;;;;5.10;3.70;;;11.70;99.90;;;;;;5003058;28;21023;-26
2024/02/18 11:49:14;;;;;;;5.10;4.00;;;11.80;99.90;;;;;;4994328;28;21277;-27
2024/02/18 11:51:42;;;;;;;7.10;4.27;;;11.80;99.90;;;;;;4999399;28;20423;-25
2024/02/18 11:54:09;;;;;;;7.13;3.77;;;11.80;99.90;;;;;;4997880;28;20990;-26
2024/02/18 11:56:35;;;;;;;4.73;3.60;;;11.80;99.90;;;;;;4983984;28;21210;-26
2024/02/18 11:59:01;;;;;;;4.60;4.17;;;11.80;99.90;;;;;;4998440;28;20811;-27
2024/02/18 12:01:29;;;;;;;4.87;3.27;;;11.80;99.90;;;;;;4997099;28;20985;-26
2024/02/18 12:03:55;;;;;;;6.77;2.90;;;11.80;99.90;;;;;;4995613;28;20530;-26
2024/02/18 12:06:23;;;;;;;5.60;3.63;;;11.80;99.90;;;;;;5000642;28;20478;-27
2024/02/18 12:08:49;;;;;;;7.67;3.20;;;11.80;99.90;;;;;;4991792;28;20475;-26
2024/02/18 12:11:16;;;;;;;5.03;3.37;;;11.80;99.90;;;;;;5000483;28;21266;-27
2024/02/18 12:13:45;;;;;;;5.37;3.20;;;11.80;99.90;;;;;;4983748;28;21010;-26
2024/02/18 12:16:16;;;;;;;6.03;3.60;;;11.80;99.90;;;;;;4998833;28;20472;-26
2024/02/18 12:18:45;;;;;;;4.80;3.50;;;11.80;99.90;;;;;;5004150;28;20789;-26
2024/02/18 12:21:15;;;;;;;4.50;3.03;;;11.80;99.90;;;;;;4997238;28;20539;-26
2024/02/18 12:23:46;;;;;;;4.87;2.90;;;11.80;99.90;;;;;;5000546;28;20532;-26
2024/02/18 12:26:13;;;;;;;3.23;2.93;;;11.80;99.90;;;;;;5000246;28;20456;-26
2024/02/18 12:28:42;;;;;;;3.87;3.47;;;11.80;99.90;;;;;;5001381;28;20436;-27
2024/02/18 12:31:09;;;;;;;9.50;3.63;;;11.70;99.90;;;;;;5002347;28;20459;-26
2024/02/18 12:33:38;;;;;;;3.13;2.83;;;11.70;99.90;;;;;;5012992;28;20634;-27
2024/02/18 12:36:07;;;;;;;8.80;4.03;;;11.70;99.90;;;;;;5002573;28;20460;-24
2024/02/18 12:38:33;;;;;;;6.33;3.87;;;11.70;99.90;;;;;;5005145;28;20907;-27
2024/02/18 12:41:03;;;;;;;6.37;3.37;;;11.80;99.90;;;;;;5000982;28;20444;-25
2024/02/18 12:43:29;;;;;;;5.97;3.33;;;11.70;99.90;;;;;;4999840;28;21185;-26
2024/02/18 12:45:55;;;;;;;4.93;3.60;;;11.70;99.90;;;;;;4989736;28;20452;-25
2024/02/18 12:48:23;;;;;;;6.53;3.27;;;11.70;99.90;;;;;;4988385;28;20428;-26
2024/02/18 12:51:12;;;;;;;6.37;3.33;;;11.70;99.90;;;;;;5001404;28;20433;-25
2024/02/18 12:53:43;;;;;;;4.40;3.30;;;11.70;99.90;;;;;;5004374;28;20478;-26
2024/02/18 12:56:10;;;;;;;5.93;3.50;;;11.70;99.90;;;;;;5002435;28;20469;-26
2024/02/18 12:58:38;;;;;;;5.60;3.40;;;11.70;99.90;;;;;;5000948;28;20417;-25
2024/02/18 13:01:04;;;;;;;4.70;3.30;;;11.70;99.90;;;;;;4990453;28;20463;-26
2024/02/18 13:03:30;;;;;;;3.37;3.07;;;11.70;99.90;;;;;;5011975;28;20439;-27
2024/02/18 13:05:57;;;;;;;5.67;3.53;;;11.70;99.90;;;;;;5011937;28;20424;-24
2024/02/18 13:08:24;;;;;;;7.40;3.87;;;11.70;99.90;;;;;;4998295;28;20573;-26
2024/02/18 13:10:50;;;;;;;4.50;4.10;;;11.70;99.90;;;;;;4996737;28;20447;-26
2024/02/18 13:13:17;;;;;;;7.47;3.47;;;11.70;99.90;;;;;;5004275;28;20452;-26
2024/02/18 13:15:43;;;;;;;10.13;3.20;;;11.70;99.90;;;;;;4998195;28;20468;-26
2024/02/18 13:18:11;;;;;;;7.50;4.30;;;11.70;99.90;;;;;;4981459;28;20433;-26
2024/02/18 13:20:37;;;;;;;6.20;2.83;;;11.70;99.90;;;;;;5002119;28;20493;-26
2024/02/18 13:23:06;;;;;;;5.73;4.17;;;11.70;99.90;;;;;;5008321;28;20456;-26
2024/02/18 13:25:32;;;;;;;3.87;3.20;;;11.70;99.90;;;;;;5009015;28;20451;-26
2024/02/18 13:28:01;;;;;;;4.60;3.20;;;11.70;99.90;;;;;;5001414;28;20443;-26
2024/02/18 13:30:31;;;;;;;10.77;3.90;;;11.70;99.90;;;;;;5011528;28;20945;-26
2024/02/18 13:32:57;;;;;;;3.80;3.37;;;11.70;99.90;;;;;;4984258;28;20449;-26
2024/02/18 13:35:26;;;;;;;4.00;3.30;;;11.70;99.90;;;;;;5008166;28;20426;-26
2024/02/18 13:37:52;;;;;;;4.83;3.03;;;11.70;99.90;;;;;;5005663;28;20995;-26
2024/02/18 13:40:20;;;;;;;6.90;3.87;;;11.70;99.90;;;;;;5016439;28;20779;-26
2024/02/18 13:42:46;;;;;;;3.60;3.10;;;11.70;99.90;;;;;;5005926;28;20543;-26
2024/02/18 13:45:13;;;;;;;3.93;3.53;;;11.70;99.90;;;;;;4983144;28;20440;-26
2024/02/18 13:47:43;;;;;;;3.93;2.80;;;11.70;99.90;;;;;;5008830;28;20446;-27
2024/02/18 13:50:10;;;;;;;5.07;3.70;;;11.70;99.90;;;;;;5010590;28;20838;-27
2024/02/18 13:52:36;;;;;;;3.90;3.40;;;11.70;99.90;;;;;;4981173;28;20416;-24
2024/02/18 13:55:02;;;;;;;3.53;3.23;;;11.70;99.90;;;;;;4988645;28;20431;-25
2024/02/18 13:57:29;;;;;;;5.33;3.10;;;11.70;99.90;;;;;;4999742;28;20468;-24
2024/02/18 13:59:56;;;;;;;3.47;3.17;;;11.70;99.90;;;;;;4998194;28;20443;-26
2024/02/18 14:02:22;;;;;;;3.50;3.20;;;11.70;99.90;;;;;;4998726;28;20424;-25
2024/02/18 14:04:51;;;;;;;4.27;3.80;;;11.70;99.90;;;;;;4994523;28;20441;-26
2024/02/18 14:07:20;;;;;;;4.17;3.13;;;11.70;99.90;;;;;;4997898;28;21329;-26
2024/02/18 14:09:48;;;;;;;5.47;3.50;;;11.70;99.90;;;;;;5002162;28;20479;-26
2024/02/18 14:12:21;;;;;;;6.53;3.70;;;11.70;99.90;;;;;;5003647;28;20431;-26